Time;durP1;ratioP1;P1;durP2;ratioP2;P2;SDS_P1;SDS_P2;PMS_P1;PMS_P2;Temp;Humidity;BMP_temperature;BMP_pressure;BME280_temperature;BME280_humidity;BME280_pressure;Samples;Min_cycle;Max_cycle;Signal;HPM_P1;HPM_P2
2022/03/16 00:02:26;;;;;;;14.60;11.70;;;;;;;;;;5004510;28;20200;-50
2022/03/16 00:04:52;;;;;;;19.27;12.85;;;;;;;;;;5003392;28;20926;-50
2022/03/16 00:07:19;;;;;;;18.33;13.35;;;;;;;;;;5003498;28;20204;-49
2022/03/16 00:09:45;;;;;;;15.43;11.60;;;;;;;;;;5003342;28;20869;-48
2022/03/16 00:12:20;;;;;;;15.45;12.43;;;;;;;;;;5002467;28;20266;-50
2022/03/16 00:14:46;;;;;;;18.73;12.95;;;;;;;;;;4999551;28;20203;-48
2022/03/16 00:17:12;;;;;;;28.53;16.10;;;;;;;;;;5003615;28;20246;-49
2022/03/16 00:19:40;;;;;;;22.70;14.90;;;;;;;;;;5000941;28;20403;-52
2022/03/16 00:22:06;;;;;;;26.90;14.05;;;;;;;;;;5001180;28;20326;-50
2022/03/16 00:24:32;;;;;;;18.42;13.98;;;;;;;;;;5003726;28;20208;-51
2022/03/16 00:26:58;;;;;;;21.10;15.60;;;;;;;;;;5004476;28;20250;-46
2022/03/16 00:29:25;;;;;;;25.33;17.55;;;;;;;;;;5002720;28;20180;-48
2022/03/16 00:31:50;;;;;;;28.65;17.17;;;;;;;;;;5003484;28;20196;-48
2022/03/16 00:34:16;;;;;;;22.30;16.50;;;;;;;;;;5003165;28;20207;-48
2022/03/16 00:36:42;;;;;;;21.97;15.37;;;;;;;;;;5003271;28;20409;-49
2022/03/16 00:39:09;;;;;;;24.33;16.17;;;;;;;;;;5003468;28;20399;-48
2022/03/16 00:41:35;;;;;;;20.00;13.60;;;;;;;;;;5002775;28;20184;-47
2022/03/16 00:44:02;;;;;;;20.33;14.10;;;;;;;;;;5003253;28;20168;-49
2022/03/16 00:46:28;;;;;;;18.65;13.80;;;;;;;;;;5003153;28;20164;-49
2022/03/16 00:48:54;;;;;;;21.87;14.43;;;;;;;;;;5003459;28;20168;-49
2022/03/16 00:51:21;;;;;;;21.37;14.00;;;;;;;;;;5003448;28;21001;-49
2022/03/16 00:53:47;;;;;;;19.45;14.25;;;;;;;;;;5003114;28;20619;-49
2022/03/16 00:56:13;;;;;;;17.10;13.50;;;;;;;;;;5003198;28;20727;-49
2022/03/16 00:58:39;;;;;;;23.20;16.83;;;;;;;;;;5003035;28;20911;-48
2022/03/16 01:01:06;;;;;;;32.28;21.42;;;;;;;;;;5003222;28;20534;-49
2022/03/16 01:03:32;;;;;;;28.40;19.58;;;;;;;;;;5003127;28;20237;-46
2022/03/16 01:05:58;;;;;;;37.33;22.73;;;;;;;;;;5002863;28;20256;-47
2022/03/16 01:08:25;;;;;;;38.23;23.60;;;;;;;;;;5002699;28;20223;-48
2022/03/16 01:10:52;;;;;;;36.38;22.98;;;;;;;;;;5002348;28;21236;-48
2022/03/16 01:13:18;;;;;;;32.22;20.85;;;;;;;;;;5003468;28;20176;-49
2022/03/16 01:15:44;;;;;;;29.25;16.27;;;;;;;;;;5002313;28;20224;-49
2022/03/16 01:18:10;;;;;;;18.67;14.23;;;;;;;;;;5004556;28;20524;-49
2022/03/16 01:20:36;;;;;;;19.75;12.60;;;;;;;;;;5002321;28;20451;-49
2022/03/16 01:23:02;;;;;;;20.00;13.70;;;;;;;;;;5002734;28;20672;-48
2022/03/16 01:25:28;;;;;;;18.27;13.57;;;;;;;;;;5003345;28;20419;-49
2022/03/16 01:27:54;;;;;;;16.27;12.57;;;;;;;;;;5003708;28;20413;-49
2022/03/16 01:30:20;;;;;;;17.55;12.85;;;;;;;;;;5006345;28;20407;-48
2022/03/16 01:32:46;;;;;;;19.75;13.77;;;;;;;;;;5007186;28;20173;-48
2022/03/16 01:35:13;;;;;;;18.27;13.30;;;;;;;;;;5006291;28;20254;-48
2022/03/16 01:37:41;;;;;;;16.35;12.70;;;;;;;;;;5007558;28;20415;-48
2022/03/16 01:40:07;;;;;;;19.58;13.50;;;;;;;;;;5006332;28;20240;-48
2022/03/16 01:42:34;;;;;;;16.90;12.05;;;;;;;;;;5006486;28;20284;-47
2022/03/16 01:45:00;;;;;;;20.48;13.30;;;;;;;;;;5006283;28;21673;-47
2022/03/16 01:47:26;;;;;;;25.40;14.30;;;;;;;;;;5007446;28;20176;-47
2022/03/16 01:49:55;;;;;;;27.02;16.98;;;;;;;;;;5005327;28;20266;-48
2022/03/16 01:52:25;;;;;;;23.85;15.07;;;;;;;;;;5006095;28;20188;-48
2022/03/16 01:54:51;;;;;;;27.98;15.90;;;;;;;;;;5006693;28;20208;-49
2022/03/16 01:57:17;;;;;;;23.23;15.82;;;;;;;;;;5006568;28;20198;-47
2022/03/16 01:59:44;;;;;;;15.90;13.23;;;;;;;;;;5004934;28;20640;-48
2022/03/16 02:02:10;;;;;;;16.52;12.80;;;;;;;;;;5005168;28;20194;-47
2022/03/16 02:04:37;;;;;;;16.15;12.85;;;;;;;;;;5005314;28;20184;-47
2022/03/16 02:07:03;;;;;;;23.13;14.35;;;;;;;;;;5005181;28;20189;-48
2022/03/16 02:09:29;;;;;;;17.80;13.10;;;;;;;;;;5005804;28;20172;-47
2022/03/16 02:11:55;;;;;;;22.23;13.90;;;;;;;;;;5006548;28;20224;-48
2022/03/16 02:14:22;;;;;;;17.73;12.65;;;;;;;;;;5006120;28;20491;-49
2022/03/16 02:16:48;;;;;;;19.60;12.45;;;;;;;;;;5006745;28;20291;-48
2022/03/16 02:19:14;;;;;;;18.27;13.43;;;;;;;;;;5005885;28;20230;-48
2022/03/16 02:21:40;;;;;;;19.88;14.00;;;;;;;;;;5005757;28;20192;-50
2022/03/16 02:24:07;;;;;;;21.77;14.20;;;;;;;;;;5005428;28;20920;-48
2022/03/16 02:26:33;;;;;;;18.02;13.75;;;;;;;;;;5006426;28;20614;-47
2022/03/16 02:28:59;;;;;;;26.48;16.63;;;;;;;;;;5007717;28;20172;-49
2022/03/16 02:31:25;;;;;;;25.88;16.73;;;;;;;;;;5005510;28;20275;-49
2022/03/16 02:33:51;;;;;;;21.45;14.82;;;;;;;;;;5005838;28;20204;-47
2022/03/16 02:36:17;;;;;;;21.70;15.40;;;;;;;;;;5007008;28;20188;-47
2022/03/16 02:38:43;;;;;;;25.20;16.15;;;;;;;;;;5005977;28;20959;-47
2022/03/16 02:41:10;;;;;;;26.70;16.80;;;;;;;;;;5005201;28;20223;-48
2022/03/16 02:43:36;;;;;;;23.23;15.75;;;;;;;;;;5005942;28;20776;-49
2022/03/16 02:46:02;;;;;;;21.65;16.35;;;;;;;;;;5005459;28;20585;-49
2022/03/16 02:48:28;;;;;;;22.33;14.85;;;;;;;;;;5005699;28;20179;-48
2022/03/16 02:50:54;;;;;;;24.27;15.77;;;;;;;;;;5005633;28;20619;-51
2022/03/16 02:53:20;;;;;;;24.48;14.95;;;;;;;;;;5004595;28;20470;-49
2022/03/16 02:55:47;;;;;;;27.67;18.30;;;;;;;;;;5006155;28;20237;-48
2022/03/16 02:58:13;;;;;;;25.35;16.23;;;;;;;;;;5005647;28;20855;-48
2022/03/16 03:00:39;;;;;;;27.17;16.13;;;;;;;;;;5004055;28;20620;-49
2022/03/16 03:03:05;;;;;;;21.73;14.82;;;;;;;;;;5005458;28;20188;-48
2022/03/16 03:05:31;;;;;;;22.83;15.97;;;;;;;;;;5005735;28;20184;-50
2022/03/16 03:07:57;;;;;;;26.83;16.80;;;;;;;;;;5004873;28;21012;-47
2022/03/16 03:10:23;;;;;;;20.98;15.00;;;;;;;;;;5004860;28;20501;-49
2022/03/16 03:12:49;;;;;;;21.03;15.03;;;;;;;;;;5005289;28;20791;-46
2022/03/16 03:15:15;;;;;;;22.13;14.50;;;;;;;;;;5004720;28;20557;-48
2022/03/16 03:17:42;;;;;;;22.53;13.40;;;;;;;;;;5005232;28;20416;-47
2022/03/16 03:20:09;;;;;;;22.80;13.07;;;;;;;;;;5004458;28;20470;-49
2022/03/16 03:22:35;;;;;;;19.00;12.68;;;;;;;;;;5004611;28;20188;-49
2022/03/16 03:25:01;;;;;;;23.92;14.65;;;;;;;;;;5005981;28;20215;-49
2022/03/16 03:27:27;;;;;;;17.67;13.35;;;;;;;;;;5003781;28;20753;-48
2022/03/16 03:29:53;;;;;;;21.70;13.30;;;;;;;;;;4986696;28;20177;-48
2022/03/16 03:32:19;;;;;;;17.30;13.17;;;;;;;;;;5004107;28;20219;-49
2022/03/16 03:34:51;;;;;;;20.40;12.85;;;;;;;;;;5004743;28;20993;-54
2022/03/16 03:37:18;;;;;;;17.35;13.40;;;;;;;;;;5006991;28;20169;-51
2022/03/16 03:39:44;;;;;;;19.27;13.32;;;;;;;;;;5004231;28;20665;-48
2022/03/16 03:42:10;;;;;;;19.00;13.00;;;;;;;;;;5005098;28;20192;-48
2022/03/16 03:44:37;;;;;;;16.25;12.10;;;;;;;;;;5004312;28;20464;-47
2022/03/16 03:47:06;;;;;;;18.73;13.20;;;;;;;;;;5003617;28;20242;-47
2022/03/16 03:49:36;;;;;;;17.25;11.30;;;;;;;;;;5003394;28;20250;-48
2022/03/16 03:52:03;;;;;;;14.88;11.70;;;;;;;;;;5002803;28;20204;-52
2022/03/16 03:54:29;;;;;;;22.65;13.52;;;;;;;;;;5004485;28;20291;-51
2022/03/16 03:56:55;;;;;;;19.67;12.80;;;;;;;;;;5003907;28;20267;-49
2022/03/16 03:59:21;;;;;;;22.70;11.85;;;;;;;;;;5003459;28;20453;-46
2022/03/16 04:01:47;;;;;;;22.43;11.70;;;;;;;;;;5004194;28;20286;-52
2022/03/16 04:04:13;;;;;;;19.67;13.32;;;;;;;;;;5003521;28;20445;-48
2022/03/16 04:06:39;;;;;;;24.13;13.15;;;;;;;;;;5004321;28;20223;-47
2022/03/16 04:09:05;;;;;;;26.20;15.25;;;;;;;;;;5003822;28;20173;-48
2022/03/16 04:11:32;;;;;;;24.38;14.98;;;;;;;;;;5003084;28;20212;-48
2022/03/16 04:13:58;;;;;;;26.67;15.25;;;;;;;;;;5003351;28;20527;-48
2022/03/16 04:16:24;;;;;;;23.95;15.88;;;;;;;;;;5003540;28;20183;-48
2022/03/16 04:18:50;;;;;;;21.65;14.85;;;;;;;;;;5004097;28;21058;-48
2022/03/16 04:21:16;;;;;;;23.87;15.60;;;;;;;;;;5003353;28;20203;-48
2022/03/16 04:23:42;;;;;;;20.77;14.67;;;;;;;;;;5002920;28;20415;-48
2022/03/16 04:26:08;;;;;;;22.00;14.57;;;;;;;;;;5002801;28;20442;-48
2022/03/16 04:28:34;;;;;;;18.73;13.40;;;;;;;;;;5003431;28;20442;-48
2022/03/16 04:31:00;;;;;;;22.30;14.13;;;;;;;;;;5003727;28;21800;-47
2022/03/16 04:33:26;;;;;;;23.65;14.82;;;;;;;;;;5003267;28;20176;-48
2022/03/16 04:35:52;;;;;;;23.20;14.48;;;;;;;;;;5005379;28;20200;-48
2022/03/16 04:38:19;;;;;;;21.07;13.83;;;;;;;;;;5003578;28;20241;-48
2022/03/16 04:40:45;;;;;;;20.20;12.93;;;;;;;;;;5003105;28;20430;-47
2022/03/16 04:43:11;;;;;;;18.30;12.43;;;;;;;;;;5003493;28;20214;-49
2022/03/16 04:45:38;;;;;;;17.10;12.43;;;;;;;;;;5003706;28;20184;-49
2022/03/16 04:48:07;;;;;;;18.10;12.85;;;;;;;;;;5004385;28;20407;-48
2022/03/16 04:50:33;;;;;;;19.15;13.10;;;;;;;;;;5002965;28;20915;-49
2022/03/16 04:52:59;;;;;;;23.45;14.20;;;;;;;;;;5003819;28;20787;-49
2022/03/16 04:55:25;;;;;;;24.90;15.23;;;;;;;;;;5002491;28;20201;-48
2022/03/16 04:57:51;;;;;;;17.57;13.10;;;;;;;;;;5002727;28;20430;-47
2022/03/16 05:00:17;;;;;;;18.83;13.20;;;;;;;;;;5000977;28;20455;-50
2022/03/16 05:02:43;;;;;;;19.25;13.23;;;;;;;;;;5001130;28;20431;-49
2022/03/16 05:05:12;;;;;;;27.20;14.40;;;;;;;;;;5007101;28;20195;-50
2022/03/16 05:07:39;;;;;;;18.95;13.07;;;;;;;;;;5007094;28;20411;-48
2022/03/16 05:10:06;;;;;;;27.30;16.30;;;;;;;;;;5007373;28;20189;-48
2022/03/16 05:12:38;;;;;;;24.80;15.75;;;;;;;;;;5008463;28;20200;-49
2022/03/16 05:15:09;;;;;;;22.95;15.25;;;;;;;;;;5015530;28;20254;-48
2022/03/16 05:17:35;;;;;;;23.45;15.63;;;;;;;;;;5000391;28;20263;-48
2022/03/16 05:20:01;;;;;;;25.35;14.43;;;;;;;;;;5015109;28;20539;-49
2022/03/16 05:22:28;;;;;;;23.42;14.43;;;;;;;;;;5015070;28;20189;-48
2022/03/16 05:24:54;;;;;;;21.10;13.85;;;;;;;;;;5015014;28;20251;-48
2022/03/16 05:27:20;;;;;;;22.05;13.52;;;;;;;;;;5015193;28;20620;-48
2022/03/16 05:29:46;;;;;;;24.30;14.10;;;;;;;;;;5014563;28;20537;-49
2022/03/16 05:32:12;;;;;;;21.92;14.07;;;;;;;;;;5015149;28;20253;-49
2022/03/16 05:34:38;;;;;;;25.23;13.97;;;;;;;;;;5015520;28;20746;-48
2022/03/16 05:37:05;;;;;;;23.30;13.90;;;;;;;;;;5015299;28;20795;-48
2022/03/16 05:39:31;;;;;;;21.00;12.98;;;;;;;;;;5001497;28;20454;-48
2022/03/16 05:41:57;;;;;;;20.70;13.30;;;;;;;;;;5017976;28;20294;-48
2022/03/16 05:44:23;;;;;;;22.50;13.93;;;;;;;;;;5013961;28;20446;-48
2022/03/16 05:46:50;;;;;;;22.13;13.77;;;;;;;;;;5015052;28;20223;-49
2022/03/16 05:49:16;;;;;;;26.10;14.93;;;;;;;;;;5014514;28;20420;-48
2022/03/16 05:51:42;;;;;;;22.07;13.73;;;;;;;;;;5014934;28;20335;-48
2022/03/16 05:54:08;;;;;;;35.53;14.40;;;;;;;;;;5014907;28;20399;-48
2022/03/16 05:56:35;;;;;;;24.27;13.00;;;;;;;;;;5015115;28;20411;-48
2022/03/16 05:59:01;;;;;;;23.45;12.95;;;;;;;;;;5014507;28;20403;-48
2022/03/16 06:01:27;;;;;;;33.67;13.40;;;;;;;;;;5014539;28;20187;-48
2022/03/16 06:03:53;;;;;;;33.08;12.55;;;;;;;;;;5013890;28;20419;-48
2022/03/16 06:06:20;;;;;;;41.92;15.15;;;;;;;;;;5014332;28;20179;-48
2022/03/16 06:08:46;;;;;;;57.35;16.10;;;;;;;;;;5014222;28;20172;-48
2022/03/16 06:11:12;;;;;;;51.45;15.57;;;;;;;;;;5014037;28;20418;-49
2022/03/16 06:13:38;;;;;;;24.50;12.60;;;;;;;;;;5014022;28;20664;-49
2022/03/16 06:16:04;;;;;;;62.27;15.80;;;;;;;;;;5013263;28;21033;-49
2022/03/16 06:18:30;;;;;;;53.22;14.93;;;;;;;;;;5014330;28;20399;-48
2022/03/16 06:20:56;;;;;;;37.93;14.90;;;;;;;;;;5013734;28;20188;-49
2022/03/16 06:23:21;;;;;;;22.53;13.67;;;;;;;;;;5014010;28;20483;-49
2022/03/16 06:25:47;;;;;;;25.03;13.47;;;;;;;;;;5013722;28;20414;-48
2022/03/16 06:28:13;;;;;;;24.43;13.53;;;;;;;;;;5013832;28;20436;-48
2022/03/16 06:30:39;;;;;;;20.63;13.20;;;;;;;;;;5013468;28;20920;-49
2022/03/16 06:33:05;;;;;;;19.97;13.00;;;;;;;;;;5013560;28;20904;-49
2022/03/16 06:35:32;;;;;;;22.20;13.60;;;;;;;;;;5013711;28;20461;-48
2022/03/16 06:37:58;;;;;;;25.95;14.48;;;;;;;;;;5013499;28;20431;-49
2022/03/16 06:40:24;;;;;;;25.30;13.52;;;;;;;;;;5013468;28;20168;-50
2022/03/16 06:42:51;;;;;;;24.47;13.63;;;;;;;;;;5013326;28;20175;-49
2022/03/16 06:45:18;;;;;;;20.13;12.75;;;;;;;;;;5013655;28;20892;-49
2022/03/16 06:47:44;;;;;;;16.35;11.20;;;;;;;;;;5013381;28;20210;-48
2022/03/16 06:50:10;;;;;;;18.80;11.77;;;;;;;;;;5010860;28;20712;-49
2022/03/16 06:52:38;;;;;;;17.85;10.70;;;;;;;;;;5013120;28;20743;-50
2022/03/16 06:55:04;;;;;;;18.10;10.80;;;;;;;;;;5012898;28;20193;-49
2022/03/16 06:57:30;;;;;;;17.33;9.83;;;;;;;;;;5013256;28;20419;-49
2022/03/16 06:59:56;;;;;;;12.90;10.13;;;;;;;;;;5012205;28;20407;-50
2022/03/16 07:02:22;;;;;;;15.73;10.10;;;;;;;;;;5013001;28;20938;-50
2022/03/16 07:04:48;;;;;;;17.53;10.30;;;;;;;;;;5013070;28;20485;-49
2022/03/16 07:07:14;;;;;;;14.67;11.13;;;;;;;;;;5013101;28;20883;-49
2022/03/16 07:09:40;;;;;;;15.50;10.73;;;;;;;;;;5012425;28;20460;-49
2022/03/16 07:12:06;;;;;;;16.50;11.27;;;;;;;;;;5012660;28;20918;-50
2022/03/16 07:14:32;;;;;;;11.60;9.20;;;;;;;;;;5012930;28;21086;-50
2022/03/16 07:16:58;;;;;;;16.50;9.90;;;;;;;;;;5012839;28;20489;-50
2022/03/16 07:19:24;;;;;;;14.80;10.60;;;;;;;;;;5013254;28;20412;-48
2022/03/16 07:21:50;;;;;;;17.00;10.70;;;;;;;;;;5011884;28;20751;-51
2022/03/16 07:24:16;;;;;;;32.10;17.83;;;;;;;;;;5012893;28;20512;-50
2022/03/16 07:26:42;;;;;;;53.33;27.93;;;;;;;;;;5012437;28;20382;-49
2022/03/16 07:29:09;;;;;;;45.23;24.20;;;;;;;;;;5012931;28;20413;-47
2022/03/16 07:31:35;;;;;;;32.87;20.27;;;;;;;;;;5012921;28;20426;-51
2022/03/16 07:34:01;;;;;;;24.20;15.40;;;;;;;;;;5013144;28;20409;-50
2022/03/16 07:36:31;;;;;;;15.33;11.50;;;;;;;;;;5013213;28;20410;-50
2022/03/16 07:38:57;;;;;;;16.57;10.53;;;;;;;;;;5012826;28;20811;-50
2022/03/16 07:41:23;;;;;;;16.33;11.93;;;;;;;;;;5012561;28;20491;-50
2022/03/16 07:43:49;;;;;;;12.20;11.00;;;;;;;;;;5013237;28;20408;-51
2022/03/16 07:46:15;;;;;;;15.47;9.97;;;;;;;;;;5013025;28;20447;-52
2022/03/16 07:48:43;;;;;;;21.27;10.47;;;;;;;;;;5013001;28;20446;-49
2022/03/16 07:51:09;;;;;;;11.87;9.77;;;;;;;;;;5012423;28;20988;-50
2022/03/16 07:53:35;;;;;;;13.00;10.40;;;;;;;;;;5012944;28;20396;-51
2022/03/16 07:56:02;;;;;;;12.07;10.33;;;;;;;;;;5012321;28;20503;-48
2022/03/16 07:58:28;;;;;;;18.83;12.70;;;;;;;;;;5012908;28;20401;-49
2022/03/16 08:00:54;;;;;;;15.40;12.17;;;;;;;;;;5011988;28;20507;-48
2022/03/16 08:03:19;;;;;;;15.20;11.00;;;;;;;;;;5012504;28;20421;-47
2022/03/16 08:05:47;;;;;;;12.47;9.43;;;;;;;;;;5012468;28;20406;-48
2022/03/16 08:08:13;;;;;;;11.13;9.93;;;;;;;;;;5012601;28;20482;-52
2022/03/16 08:10:39;;;;;;;13.20;10.10;;;;;;;;;;5011717;28;20471;-48
2022/03/16 08:13:05;;;;;;;15.37;10.40;;;;;;;;;;5012570;28;20402;-48
2022/03/16 08:15:31;;;;;;;13.70;10.80;;;;;;;;;;5012662;28;20568;-48
2022/03/16 08:17:56;;;;;;;11.60;10.00;;;;;;;;;;5012488;28;20403;-48
2022/03/16 08:20:23;;;;;;;11.20;9.40;;;;;;;;;;5011618;28;20895;-48
2022/03/16 08:22:54;;;;;;;10.83;9.73;;;;;;;;;;5012133;28;20910;-48
2022/03/16 08:25:19;;;;;;;11.80;10.03;;;;;;;;;;5012456;28;20430;-48
2022/03/16 08:27:46;;;;;;;15.20;9.60;;;;;;;;;;5012238;28;20445;-48
2022/03/16 08:30:12;;;;;;;13.83;9.80;;;;;;;;;;5012213;28;20834;-49
2022/03/16 08:32:38;;;;;;;13.27;10.10;;;;;;;;;;5011917;28;20964;-49
2022/03/16 08:35:06;;;;;;;10.33;8.80;;;;;;;;;;5012347;28;20477;-48
2022/03/16 08:37:32;;;;;;;13.40;9.90;;;;;;;;;;5012090;28;20838;-48
2022/03/16 08:39:58;;;;;;;9.87;8.40;;;;;;;;;;5011330;28;20879;-50
2022/03/16 08:42:24;;;;;;;11.63;8.97;;;;;;;;;;5011893;28;20484;-50
2022/03/16 08:44:51;;;;;;;11.33;9.90;;;;;;;;;;5011965;28;20994;-50
2022/03/16 08:47:18;;;;;;;9.30;8.33;;;;;;;;;;5014130;28;20912;-50
2022/03/16 08:49:44;;;;;;;9.80;8.33;;;;;;;;;;5011425;28;20470;-50
2022/03/16 08:52:10;;;;;;;10.80;7.90;;;;;;;;;;5011290;28;20960;-50
2022/03/16 08:54:36;;;;;;;10.90;9.27;;;;;;;;;;5011767;28;20443;-49
2022/03/16 08:57:03;;;;;;;9.17;7.70;;;;;;;;;;5012035;28;20424;-51
2022/03/16 08:59:29;;;;;;;9.90;8.90;;;;;;;;;;5011393;28;20552;-50
2022/03/16 09:01:54;;;;;;;11.20;9.73;;;;;;;;;;5011415;28;20475;-49
2022/03/16 09:04:21;;;;;;;9.80;8.77;;;;;;;;;;5010411;28;20506;-49
2022/03/16 09:06:50;;;;;;;8.60;7.70;;;;;;;;;;5011058;28;20980;-51
2022/03/16 09:09:16;;;;;;;12.20;8.97;;;;;;;;;;5009513;28;20404;-50
2022/03/16 09:11:42;;;;;;;12.93;8.90;;;;;;;;;;5009154;28;20428;-49
2022/03/16 09:14:08;;;;;;;10.30;8.50;;;;;;;;;;5011584;28;20459;-49
2022/03/16 09:16:34;;;;;;;9.33;8.43;;;;;;;;;;5011184;28;20892;-51
2022/03/16 09:19:01;;;;;;;10.03;8.60;;;;;;;;;;5011117;28;20404;-51
2022/03/16 09:21:27;;;;;;;12.90;9.37;;;;;;;;;;5011303;28;20423;-49
2022/03/16 09:23:55;;;;;;;11.43;8.93;;;;;;;;;;5011589;28;20454;-50
2022/03/16 09:26:21;;;;;;;12.93;9.43;;;;;;;;;;5011676;28;20447;-49
2022/03/16 09:28:48;;;;;;;10.70;9.63;;;;;;;;;;5011500;28;20434;-49
2022/03/16 09:31:14;;;;;;;15.63;10.97;;;;;;;;;;5011373;28;20462;-48
2022/03/16 09:33:40;;;;;;;12.50;9.97;;;;;;;;;;5011332;28;20383;-48
2022/03/16 09:36:09;;;;;;;12.70;9.97;;;;;;;;;;5010295;28;20458;-50
2022/03/16 09:38:36;;;;;;;17.10;12.70;;;;;;;;;;5011620;28;20405;-50
2022/03/16 09:41:02;;;;;;;12.60;8.60;;;;;;;;;;5011005;28;20428;-50
2022/03/16 09:43:31;;;;;;;11.13;8.17;;;;;;;;;;5011465;28;20772;-49
2022/03/16 09:46:02;;;;;;;13.20;8.50;;;;;;;;;;5011542;28;20384;-49
2022/03/16 09:48:29;;;;;;;11.80;9.57;;;;;;;;;;5011312;28;20384;-48
2022/03/16 09:50:56;;;;;;;10.03;8.90;;;;;;;;;;5012309;28;20482;-47
2022/03/16 09:53:28;;;;;;;11.80;9.80;;;;;;;;;;5014902;28;20508;-47
2022/03/16 09:55:57;;;;;;;9.00;7.63;;;;;;;;;;5010554;28;20509;-52
2022/03/16 09:58:23;;;;;;;10.30;8.00;;;;;;;;;;5002927;28;20429;-51
2022/03/16 10:00:49;;;;;;;14.17;8.27;;;;;;;;;;5005552;28;20513;-50
2022/03/16 10:03:16;;;;;;;7.70;6.90;;;;;;;;;;5004811;28;20418;-50
2022/03/16 10:05:44;;;;;;;11.17;7.60;;;;;;;;;;5011265;28;20410;-50
2022/03/16 10:08:11;;;;;;;8.00;7.20;;;;;;;;;;5014339;28;20493;-50
2022/03/16 10:13:23;;;;;;;8.80;7.10;;;;;;;;;;5011107;28;20562;-49
2022/03/16 10:15:50;;;;;;;9.93;7.57;;;;;;;;;;5012751;28;21162;-50
2022/03/16 10:18:17;;;;;;;9.13;6.93;;;;;;;;;;5014653;28;20842;-50
2022/03/16 10:20:44;;;;;;;8.20;7.43;;;;;;;;;;5013735;28;20937;-51
2022/03/16 10:23:14;;;;;;;8.30;7.43;;;;;;;;;;5021256;28;20772;-51
2022/03/16 10:25:42;;;;;;;10.43;8.43;;;;;;;;;;5015852;28;20948;-51
2022/03/16 10:28:10;;;;;;;10.00;8.57;;;;;;;;;;5013202;28;20498;-50
2022/03/16 10:30:37;;;;;;;11.10;7.73;;;;;;;;;;5013457;28;20430;-52
2022/03/16 10:33:03;;;;;;;10.57;8.80;;;;;;;;;;5013115;28;20434;-50
2022/03/16 10:35:29;;;;;;;10.23;9.20;;;;;;;;;;5013712;28;21134;-50
2022/03/16 10:38:07;;;;;;;9.60;8.60;;;;;;;;;;5013197;28;20842;-50
2022/03/16 10:40:34;;;;;;;10.63;8.83;;;;;;;;;;4996770;28;20964;-50
2022/03/16 10:48:56;;;;;;;10.10;8.67;;;;;;;;;;5013194;28;20443;-50
2022/03/16 10:51:22;;;;;;;8.70;7.80;;;;;;;;;;4995704;28;20429;-52
2022/03/16 10:53:50;;;;;;;16.47;9.20;;;;;;;;;;5013645;28;20408;-48
2022/03/16 10:56:17;;;;;;;13.30;9.60;;;;;;;;;;5013781;28;20430;-49
2022/03/16 10:58:44;;;;;;;9.27;8.30;;;;;;;;;;5010323;28;20777;-51
2022/03/16 11:01:10;;;;;;;9.20;8.30;;;;;;;;;;5012971;28;20430;-50
2022/03/16 11:03:37;;;;;;;11.53;8.80;;;;;;;;;;5013032;28;20423;-47
2022/03/16 11:06:03;;;;;;;9.47;8.47;;;;;;;;;;5013646;28;20414;-51
2022/03/16 11:08:34;;;;;;;10.03;8.80;;;;;;;;;;5013731;28;20772;-51
2022/03/16 11:13:27;;;;;;;9.07;8.17;;;;;;;;;;5012927;28;20435;-50
2022/03/16 11:13:49;;;;;;;8.90;8.00;;;;;;;;;;5013102;28;20459;-48
2022/03/16 11:16:20;;;;;;;9.47;8.53;;;;;;;;;;5012235;28;20527;-50
2022/03/16 11:18:48;;;;;;;8.10;7.30;;;;;;;;;;5012396;28;20407;-49
2022/03/16 11:21:15;;;;;;;8.40;7.43;;;;;;;;;;5011724;28;20447;-49
2022/03/16 11:26:34;;;;;;;9.23;8.17;;;;;;;;;;5013450;28;20398;-51
2022/03/16 11:29:00;;;;;;;11.60;8.07;;;;;;;;;;5013155;28;20396;-50
2022/03/16 11:31:29;;;;;;;9.40;8.40;;;;;;;;;;5012748;28;20520;-50
2022/03/16 11:33:58;;;;;;;12.00;8.10;;;;;;;;;;5015150;28;20418;-51
2022/03/16 11:36:31;;;;;;;8.73;7.93;;;;;;;;;;5010495;28;20981;-51
2022/03/16 11:38:58;;;;;;;10.27;9.20;;;;;;;;;;5009490;28;20415;-51
2022/03/16 11:41:25;;;;;;;11.30;8.50;;;;;;;;;;5001305;28;20535;-50
2022/03/16 11:44:00;;;;;;;12.00;9.40;;;;;;;;;;5012203;28;20511;-51
2022/03/16 11:46:28;;;;;;;16.60;9.70;;;;;;;;;;5012352;28;20427;-50
2022/03/16 11:48:56;;;;;;;11.97;9.83;;;;;;;;;;5009039;28;20444;-51
2022/03/16 11:51:24;;;;;;;10.80;8.63;;;;;;;;;;5012100;28;20980;-52
2022/03/16 11:53:51;;;;;;;8.70;7.70;;;;;;;;;;5012261;28;20429;-50
2022/03/16 11:56:20;;;;;;;8.10;7.30;;;;;;;;;;5012518;28;20457;-51
2022/03/16 11:58:47;;;;;;;8.93;8.13;;;;;;;;;;5012398;28;20408;-51
2022/03/16 12:01:32;;;;;;;8.20;7.40;;;;;;;;;;5012267;28;20450;-50
2022/03/16 12:04:08;;;;;;;8.43;7.53;;;;;;;;;;5012134;28;20519;-50
2022/03/16 12:06:54;;;;;;;10.80;8.20;;;;;;;;;;5012780;28;20401;-51
2022/03/16 12:09:39;;;;;;;9.07;8.17;;;;;;;;;;5012195;28;20403;-50
2022/03/16 12:15:09;;;;;;;8.60;7.80;;;;;;;;;;5009847;28;20526;-51
2022/03/16 12:17:35;;;;;;;8.97;7.03;;;;;;;;;;5011714;28;20466;-51
2022/03/16 12:20:24;;;;;;;9.17;8.33;;;;;;;;;;5012044;28;20769;-51
2022/03/16 12:22:53;;;;;;;7.90;7.20;;;;;;;;;;5012228;28;20820;-52
2022/03/16 12:25:29;;;;;;;9.70;7.47;;;;;;;;;;5011816;28;20934;-53
2022/03/16 12:31:00;;;;;;;9.20;8.30;;;;;;;;;;5011863;28;20472;-50
2022/03/16 12:33:28;;;;;;;9.20;7.70;;;;;;;;;;5011797;28;20413;-49
2022/03/16 12:36:01;;;;;;;8.23;7.43;;;;;;;;;;5011590;28;20458;-48
2022/03/16 12:38:29;;;;;;;8.50;7.67;;;;;;;;;;5011836;28;20459;-49
2022/03/16 12:43:40;;;;;;;8.43;7.63;;;;;;;;;;5011715;28;20446;-48
2022/03/16 12:46:15;;;;;;;8.63;7.83;;;;;;;;;;5011726;28;20399;-53
2022/03/16 12:48:41;;;;;;;8.13;7.43;;;;;;;;;;5011832;28;20429;-52
2022/03/16 12:51:07;;;;;;;8.60;7.77;;;;;;;;;;5011710;28;20426;-48
2022/03/16 12:53:45;;;;;;;8.60;7.80;;;;;;;;;;4994666;28;20756;-49
2022/03/16 12:56:12;;;;;;;8.10;7.30;;;;;;;;;;5011220;28;20548;-52
2022/03/16 12:58:39;;;;;;;8.03;7.23;;;;;;;;;;5011217;28;20427;-53
2022/03/16 13:01:04;;;;;;;8.70;6.80;;;;;;;;;;5010504;28;20800;-51
2022/03/16 13:03:30;;;;;;;8.20;7.03;;;;;;;;;;5011406;28;20423;-50
2022/03/16 13:05:57;;;;;;;7.90;6.47;;;;;;;;;;5010316;28;20441;-48
2022/03/16 13:08:25;;;;;;;7.80;7.10;;;;;;;;;;5010726;28;20430;-50
2022/03/16 13:11:16;;;;;;;6.73;6.23;;;;;;;;;;5011602;28;20446;-52
2022/03/16 13:13:48;;;;;;;7.70;7.00;;;;;;;;;;5011741;28;20464;-52
2022/03/16 13:16:56;;;;;;;7.90;7.20;;;;;;;;;;5011187;28;20834;-48
2022/03/16 13:19:24;;;;;;;8.17;5.83;;;;;;;;;;4928440;29;20517;-51
2022/03/16 13:22:02;;;;;;;6.83;6.33;;;;;;;;;;4981726;28;20448;-52
2022/03/16 13:24:28;;;;;;;8.23;7.43;;;;;;;;;;5005118;28;20789;-50
2022/03/16 13:26:54;;;;;;;6.97;6.47;;;;;;;;;;5014048;28;20445;-50
2022/03/16 13:29:21;;;;;;;7.40;6.63;;;;;;;;;;5015121;28;20399;-51
2022/03/16 13:31:47;;;;;;;6.83;6.23;;;;;;;;;;5015009;28;20435;-51
2022/03/16 13:34:14;;;;;;;8.17;7.37;;;;;;;;;;5005044;28;20547;-48
2022/03/16 13:36:44;;;;;;;8.27;7.47;;;;;;;;;;5013742;28;20442;-56
2022/03/16 13:39:30;;;;;;;6.97;6.37;;;;;;;;;;5013914;28;20490;-50
2022/03/16 13:42:12;;;;;;;7.20;6.50;;;;;;;;;;5015068;28;20430;-51
2022/03/16 13:44:52;;;;;;;7.33;6.73;;;;;;;;;;5015196;28;20881;-52
2022/03/16 13:47:20;;;;;;;7.33;6.63;;;;;;;;;;5014574;28;20426;-52
2022/03/16 13:49:47;;;;;;;8.13;7.30;;;;;;;;;;5014662;28;20417;-50
2022/03/16 13:52:16;;;;;;;9.53;8.30;;;;;;;;;;5014437;28;20512;-50
2022/03/16 13:54:43;;;;;;;7.80;7.10;;;;;;;;;;5015103;28;20459;-52
2022/03/16 13:57:16;;;;;;;8.63;7.80;;;;;;;;;;5014660;28;20470;-52
2022/03/16 13:59:43;;;;;;;8.90;7.60;;;;;;;;;;5014830;28;20491;-51
2022/03/16 14:02:10;;;;;;;8.47;7.67;;;;;;;;;;5007134;28;20435;-51
2022/03/16 14:04:42;;;;;;;10.13;7.77;;;;;;;;;;5003056;28;20538;-49
2022/03/16 14:07:23;;;;;;;8.17;7.37;;;;;;;;;;5002695;28;20494;-50
2022/03/16 14:09:50;;;;;;;9.73;7.10;;;;;;;;;;5002191;28;20411;-52
2022/03/16 14:12:16;;;;;;;8.00;7.23;;;;;;;;;;5014653;28;20467;-52
2022/03/16 14:14:45;;;;;;;8.23;7.53;;;;;;;;;;5014627;28;20462;-52
2022/03/16 14:17:11;;;;;;;8.00;7.30;;;;;;;;;;5014176;28;20845;-50
2022/03/16 14:19:38;;;;;;;9.10;8.20;;;;;;;;;;5014739;28;20816;-49
2022/03/16 14:22:05;;;;;;;8.60;7.80;;;;;;;;;;5014328;28;20744;-49
2022/03/16 14:24:33;;;;;;;7.73;6.93;;;;;;;;;;5014490;28;20417;-51
2022/03/16 14:27:15;;;;;;;8.03;7.33;;;;;;;;;;5014054;28;20499;-51
2022/03/16 14:29:42;;;;;;;7.57;6.83;;;;;;;;;;5014076;28;20426;-50
2022/03/16 14:32:08;;;;;;;8.07;7.30;;;;;;;;;;5014530;28;20457;-50
2022/03/16 14:34:34;;;;;;;7.83;7.07;;;;;;;;;;5014410;28;20406;-48
2022/03/16 14:37:00;;;;;;;8.23;7.47;;;;;;;;;;5005775;28;20431;-50
2022/03/16 14:39:27;;;;;;;8.83;7.63;;;;;;;;;;5012344;28;20404;-51
2022/03/16 14:41:55;;;;;;;9.03;7.20;;;;;;;;;;5013954;28;20561;-50
2022/03/16 14:44:21;;;;;;;8.47;7.67;;;;;;;;;;5014106;28;20415;-48
2022/03/16 14:46:47;;;;;;;10.20;9.20;;;;;;;;;;5014021;28;20803;-49
2022/03/16 14:49:13;;;;;;;8.90;8.00;;;;;;;;;;5012805;28;20525;-50